TimeCEST,TemperatureF,Dew PointF,Humidity,Sea Level PressureIn,VisibilityMPH,Wind Direction,Wind SpeedMPH,Gust SpeedMPH,PrecipitationIn,Events,Conditions,WindDirDegrees,DateUTC
12:00 AM,51.8,48.2,88,29.77,-9999.0,Variable,2.3,-,N/A,,Clear,0,2013-05-25 22:00:00
12:30 AM,50.0,46.4,87,29.77,6.2,Variable,1.2,-,N/A,,Scattered Clouds,0,2013-05-25 22:30:00
1:00 AM,50.0,46.4,87,29.77,6.2,Variable,1.2,-,N/A,,Mostly Cloudy,0,2013-05-25 23:00:00
1:30 AM,50.0,48.2,94,29.74,6.2,WNW,4.6,-,N/A,,Mostly Cloudy,300,2013-05-25 23:30:00
2:00 AM,51.8,48.2,88,29.74,6.2,NNW,4.6,-,N/A,,Mostly Cloudy,330,2013-05-26 00:00:00
2:30 AM,50.0,46.4,87,29.74,6.2,NW,6.9,-,N/A,,Scattered Clouds,310,2013-05-26 00:30:00
3:00 AM,50.0,46.4,87,29.74,-9999.0,NNW,6.9,-,N/A,,Clear,330,2013-05-26 01:00:00
3:30 AM,50.0,46.4,87,29.71,-9999.0,NNW,4.6,-,N/A,,Clear,330,2013-05-26 01:30:00
4:00 AM,50.0,46.4,87,29.71,-9999.0,Variable,3.5,-,N/A,,Clear,0,2013-05-26 02:00:00
4:30 AM,50.0,46.4,87,29.71,-9999.0,Variable,3.5,-,N/A,,Clear,0,2013-05-26 02:30:00
5:00 AM,50.0,46.4,87,29.71,-9999.0,NW,5.8,-,N/A,,Clear,320,2013-05-26 03:00:00
5:30 AM,50.0,48.2,94,29.71,6.2,NNW,4.6,-,N/A,,Mostly Cloudy,340,2013-05-26 03:30:00
6:00 AM,50.0,48.2,94,29.71,6.2,WNW,4.6,-,N/A,,Scattered Clouds,300,2013-05-26 04:00:00
6:30 AM,51.8,48.2,88,29.71,6.2,Variable,3.5,-,N/A,,Mostly Cloudy,0,2013-05-26 04:30:00
7:00 AM,53.6,48.2,82,29.71,6.2,North,4.6,-,N/A,,Mostly Cloudy,350,2013-05-26 05:00:00
7:30 AM,53.6,46.4,77,29.74,6.2,North,5.8,-,N/A,,Mostly Cloudy,350,2013-05-26 05:30:00
8:00 AM,53.6,48.2,82,29.74,6.2,NNW,5.8,-,N/A,,Mostly Cloudy,330,2013-05-26 06:00:00
8:30 AM,55.4,46.4,72,29.74,6.2,NNW,9.2,-,N/A,,Mostly Cloudy,330,2013-05-26 06:30:00
9:00 AM,55.4,46.4,72,29.74,6.2,NNW,8.1,-,N/A,,Mostly Cloudy,330,2013-05-26 07:00:00
9:30 AM,55.4,50.0,82,29.74,6.2,NW,8.1,-,N/A,,Mostly Cloudy,310,2013-05-26 07:30:00
10:00 AM,59.0,51.8,77,29.71,6.2,NW,8.1,-,N/A,,Scattered Clouds,310,2013-05-26 08:00:00
10:30 AM,59.0,42.8,55,29.71,6.2,NW,9.2,-,N/A,,Scattered Clouds,310,2013-05-26 08:30:00
11:00 AM,60.8,44.6,55,29.71,6.2,NW,11.5,-,N/A,,Scattered Clouds,320,2013-05-26 09:00:00
11:30 AM,59.0,42.8,55,29.74,6.2,NW,10.4,-,N/A,,Mostly Cloudy,320,2013-05-26 09:30:00
12:00 PM,60.8,44.6,55,29.71,6.2,WNW,13.8,-,N/A,,Mostly Cloudy,300,2013-05-26 10:00:00
12:30 PM,60.8,42.8,52,29.71,6.2,NW,11.5,-,N/A,,Mostly Cloudy,320,2013-05-26 10:30:00
1:00 PM,60.8,44.6,55,29.71,6.2,NNW,11.5,-,N/A,,Mostly Cloudy,330,2013-05-26 11:00:00
1:30 PM,60.8,42.8,52,29.71,6.2,NNW,10.4,-,N/A,,Mostly Cloudy,340,2013-05-26 11:30:00
2:00 PM,55.4,46.4,72,29.71,6.2,ENE,11.5,-,N/A,Rain,Light Rain Showers,70,2013-05-26 12:00:00
2:30 PM,55.4,46.4,72,29.71,6.2,East,8.1,-,N/A,,Mostly Cloudy,90,2013-05-26 12:30:00
3:00 PM,55.4,44.6,67,29.74,6.2,SSE,6.9,-,N/A,Rain,Light Rain Showers,150,2013-05-26 13:00:00
3:30 PM,53.6,48.2,82,29.74,6.2,East,5.8,-,N/A,Rain,Light Rain Showers,100,2013-05-26 13:30:00
4:00 PM,51.8,50.0,94,29.74,6.2,ESE,5.8,-,N/A,,Mostly Cloudy,120,2013-05-26 14:00:00
4:30 PM,53.6,48.2,82,29.74,6.2,SSE,8.1,-,N/A,,Mostly Cloudy,150,2013-05-26 14:30:00
5:00 PM,53.6,46.4,77,29.74,-9999.0,SSE,5.8,-,N/A,,Clear,160,2013-05-26 15:00:00
5:30 PM,55.4,46.4,72,29.74,-9999.0,SSW,4.6,-,N/A,,Clear,200,2013-05-26 15:30:00
6:00 PM,55.4,46.4,72,29.74,-9999.0,South,4.6,-,N/A,,Clear,190,2013-05-26 16:00:00
6:30 PM,53.6,48.2,82,29.74,-9999.0,SSW,8.1,-,N/A,,Clear,210,2013-05-26 16:30:00
7:00 PM,53.6,48.2,82,29.74,-9999.0,SSW,6.9,-,N/A,,Clear,210,2013-05-26 17:00:00
7:30 PM,53.6,51.8,94,29.74,-9999.0,South,8.1,-,N/A,,Clear,190,2013-05-26 17:30:00
8:00 PM,53.6,50.0,88,29.74,-9999.0,South,8.1,-,N/A,,Clear,190,2013-05-26 18:00:00
8:30 PM,51.8,50.0,94,29.74,-9999.0,South,9.2,-,N/A,,Clear,190,2013-05-26 18:30:00
9:00 PM,51.8,48.2,88,29.74,-9999.0,Variable,3.5,-,N/A,,Clear,0,2013-05-26 19:00:00
9:30 PM,55.4,39.2,54,29.77,-9999.0,West,15.0,-,N/A,,Clear,280,2013-05-26 19:30:00
10:00 PM,53.6,39.2,58,29.77,-9999.0,WNW,9.2,-,N/A,,Clear,290,2013-05-26 20:00:00
10:30 PM,53.6,39.2,58,29.77,-9999.0,West,12.7,-,N/A,,Clear,280,2013-05-26 20:30:00
11:00 PM,53.6,39.2,58,29.77,-9999.0,West,13.8,-,N/A,,Clear,280,2013-05-26 21:00:00
11:30 PM,51.8,39.2,62,29.77,-9999.0,West,12.7,-,N/A,,Clear,280,2013-05-26 21:30:00